Time;durP1;ratioP1;P1;durP2;ratioP2;P2;SDS_P1;SDS_P2;PMS_P1;PMS_P2;Temp;Humidity;BMP_temperature;BMP_pressure;BME280_temperature;BME280_humidity;BME280_pressure;Samples;Min_cycle;Max_cycle;Signal;HPM_P1;HPM_P2
2022/07/25 00:01:06;;;;;;;4.95;3.87;;;;;;;23.82;43.18;100041.28;4429129;32;33414;-85
2022/07/25 00:03:34;;;;;;;5.70;3.75;;;;;;;23.66;43.77;100036.50;4445648;32;33885;-85
2022/07/25 00:06:06;;;;;;;3.78;3.47;;;;;;;23.46;44.20;100041.91;4452705;32;33684;-85
2022/07/25 00:08:40;;;;;;;4.45;4.00;;;;;;;23.70;43.34;100041.47;4429959;32;34662;-85
2022/07/25 00:11:08;;;;;;;5.12;3.95;;;;;;;23.73;43.52;100046.53;4444062;32;33539;-85
2022/07/25 00:13:36;;;;;;;3.95;3.62;;;;;;;23.45;44.19;100039.31;4441181;32;33723;-85
2022/07/25 00:16:05;;;;;;;3.72;3.35;;;;;;;23.53;43.99;100034.06;4438602;32;33818;-85
2022/07/25 00:18:33;;;;;;;4.12;3.62;;;;;;;23.50;44.20;100040.63;4438206;32;33256;-85
2022/07/25 00:21:02;;;;;;;4.72;3.70;;;;;;;23.52;44.10;100029.69;4448193;32;32959;-86
2022/07/25 00:23:30;;;;;;;6.70;3.53;;;;;;;22.84;45.92;100040.44;4453015;32;33542;-86
2022/07/25 00:25:58;;;;;;;6.37;4.20;;;;;;;23.15;45.20;100034.97;4438398;32;32523;-86
2022/07/25 00:28:26;;;;;;;4.18;3.55;;;;;;;23.18;44.93;100037.37;4454364;32;33409;-86
2022/07/25 00:30:54;;;;;;;3.97;3.60;;;;;;;23.09;45.32;100033.69;4467372;32;33940;-86
2022/07/25 00:33:23;;;;;;;7.10;3.67;;;;;;;23.32;44.61;100033.41;4450574;32;34082;-86
2022/07/25 00:35:51;;;;;;;4.07;3.67;;;;;;;23.23;44.00;100025.19;4440060;32;31559;-86
2022/07/25 00:38:19;;;;;;;4.15;3.40;;;;;;;23.11;44.74;100023.63;4459098;32;33977;-86
2022/07/25 00:40:49;;;;;;;4.43;3.90;;;;;;;23.40;44.00;100030.81;4449096;32;34150;-86
2022/07/25 00:43:22;;;;;;;4.07;3.78;;;;;;;23.45;43.70;100033.94;4454197;32;33337;-86
2022/07/25 00:45:50;;;;;;;4.07;3.67;;;;;;;23.36;44.50;100034.81;4453758;32;32452;-86
2022/07/25 00:48:19;;;;;;;4.78;3.42;;;;;;;23.43;43.99;100026.00;4467285;32;34658;-85
2022/07/25 00:50:48;;;;;;;5.15;3.37;;;;;;;23.35;44.25;100027.72;4466035;32;33499;-85
2022/07/25 00:53:16;;;;;;;3.85;3.35;;;;;;;23.46;43.56;100027.59;4438797;32;32663;-85
2022/07/25 00:55:45;;;;;;;3.62;3.22;;;;;;;23.28;44.51;100032.84;4444618;32;33022;-85
2022/07/25 00:58:13;;;;;;;3.50;3.20;;;;;;;23.45;43.86;100037.50;4449121;32;33854;-85
2022/07/25 01:00:42;;;;;;;3.40;3.10;;;;;;;23.35;44.14;100033.09;4434307;32;33858;-85
2022/07/25 01:03:10;;;;;;;3.33;3.03;;;;;;;23.44;43.91;100032.25;4453923;32;33928;-85
2022/07/25 01:05:40;;;;;;;3.87;3.58;;;;;;;23.34;44.24;100031.41;4453566;32;34171;-87
2022/07/25 01:08:09;;;;;;;3.78;3.45;;;;;;;23.35;44.43;100033.09;4440459;32;33834;-86
2022/07/25 01:10:38;;;;;;;3.90;3.30;;;;;;;23.22;44.74;100031.56;4465403;32;33696;-88
2022/07/25 01:13:06;;;;;;;4.68;3.70;;;;;;;23.19;44.79;100025.59;4439971;32;34432;-87
2022/07/25 01:15:34;;;;;;;5.43;3.47;;;;;;;23.03;44.87;100023.50;4462818;32;34158;-87
2022/07/25 01:18:03;;;;;;;6.62;3.87;;;;;;;23.20;44.38;100027.31;4439908;32;33946;-87
2022/07/25 01:20:32;;;;;;;3.45;3.05;;;;;;;23.12;44.32;100032.53;4438845;32;33616;-86
2022/07/25 01:23:00;;;;;;;3.55;3.20;;;;;;;23.20;44.32;100025.47;4440603;32;32705;-85
2022/07/25 01:25:28;;;;;;;3.60;3.28;;;;;;;23.23;44.29;100025.19;4464941;32;34244;-84
2022/07/25 01:27:57;;;;;;;5.30;3.50;;;;;;;23.01;44.85;100025.47;4441346;32;32874;-85
2022/07/25 01:30:25;;;;;;;3.62;3.33;;;;;;;23.14;44.70;100025.19;4452900;32;33063;-84
2022/07/25 01:32:53;;;;;;;4.50;3.25;;;;;;;23.20;44.32;100022.75;4444509;32;32710;-84
2022/07/25 01:35:22;;;;;;;4.75;2.97;;;;;;;23.04;44.89;100027.03;4450046;32;32416;-85
2022/07/25 01:37:50;;;;;;;5.18;3.53;;;;;;;22.98;45.16;100028.47;4454704;32;33550;-86
2022/07/25 01:40:18;;;;;;;3.85;3.40;;;;;;;23.02;45.13;100019.06;4464639;32;34021;-85
2022/07/25 01:42:47;;;;;;;3.60;3.30;;;;;;;23.02;45.13;100016.37;4466389;32;33497;-85
2022/07/25 01:45:15;;;;;;;4.03;3.30;;;;;;;22.96;45.59;100012.41;4449793;32;33932;-86
2022/07/25 01:47:43;;;;;;;3.28;2.97;;;;;;;23.03;45.10;100012.72;4452714;32;33759;-86
2022/07/25 01:50:12;;;;;;;7.00;3.33;;;;;;;22.97;45.07;100013.25;4440661;32;33658;-84
2022/07/25 01:52:40;;;;;;;4.97;2.90;;;;;;;22.99;45.19;100012.16;4464939;32;33471;-86
2022/07/25 01:55:08;;;;;;;3.60;3.25;;;;;;;22.90;45.15;100018.38;4465160;32;32008;-86
2022/07/25 01:57:37;;;;;;;2.97;2.67;;;;;;;22.86;45.36;100016.06;4435178;32;33842;-85
2022/07/25 02:00:08;;;;;;;5.40;3.67;;;;;;;22.86;45.39;100016.91;4452780;32;34776;-85
2022/07/25 02:02:42;;;;;;;3.97;3.45;;;;;;;22.73;46.02;100021.72;4433981;32;34340;-86
2022/07/25 02:05:13;;;;;;;5.97;3.40;;;;;;;22.59;46.16;100011.34;4438891;32;33841;-86
2022/07/25 02:07:42;;;;;;;3.78;3.20;;;;;;;22.70;45.71;100012.09;4438478;32;33098;-85
2022/07/25 02:10:11;;;;;;;3.85;3.45;;;;;;;22.51;46.29;100009.38;4436858;32;34231;-86
2022/07/25 02:12:39;;;;;;;5.00;3.15;;;;;;;22.53;46.62;100003.84;4409867;32;34789;-86
2022/07/25 02:15:07;;;;;;;4.15;3.33;;;;;;;22.55;46.45;100001.84;4450010;32;33257;-85
2022/07/25 02:17:35;;;;;;;3.40;2.92;;;;;;;22.59;46.25;100004.13;4450418;32;34493;-86
2022/07/25 02:20:04;;;;;;;4.90;3.25;;;;;;;22.63;46.09;100000.16;4407616;32;34118;-85
2022/07/25 02:22:33;;;;;;;6.30;3.60;;;;;;;22.45;46.93;100012.59;4447955;32;33660;-85
2022/07/25 02:25:01;;;;;;;3.53;2.65;;;;;;;22.24;47.45;100005.47;4438588;32;32162;-85
2022/07/25 02:27:29;;;;;;;3.05;2.83;;;;;;;22.36;46.61;100008.03;4453077;32;34545;-85
2022/07/25 02:29:57;;;;;;;3.58;3.28;;;;;;;22.69;46.15;99996.94;4450922;32;33975;-86
2022/07/25 02:32:25;;;;;;;3.62;3.33;;;;;;;22.34;47.00;100010.03;4457824;32;34669;-86
2022/07/25 02:34:53;;;;;;;3.60;3.28;;;;;;;22.53;46.63;100015.44;4452038;32;33877;-86
2022/07/25 02:37:21;;;;;;;4.90;3.62;;;;;;;22.34;47.12;100018.09;4438651;32;32466;-86
2022/07/25 02:39:49;;;;;;;5.60;3.60;;;;;;;22.07;47.96;100022.19;4455132;32;34000;-86
2022/07/25 02:42:18;;;;;;;3.97;3.45;;;;;;;21.86;49.00;100016.03;4405717;32;32303;-86
2022/07/25 02:44:46;;;;;;;3.53;3.15;;;;;;;21.81;49.34;100019.13;4451056;32;33244;-85
2022/07/25 02:47:14;;;;;;;8.68;4.22;;;;;;;21.90;49.03;100012.09;4442047;32;32354;-86
2022/07/25 02:49:42;;;;;;;4.62;4.00;;;;;;;21.87;49.10;100007.81;4405137;32;34653;-86
2022/07/25 02:52:10;;;;;;;3.50;3.15;;;;;;;21.86;49.26;100016.03;4451493;32;33926;-87
2022/07/25 02:54:38;;;;;;;5.82;3.92;;;;;;;21.95;48.92;100021.47;4421143;32;33823;-86
2022/07/25 02:57:06;;;;;;;4.85;3.87;;;;;;;21.92;49.10;100027.09;4438753;32;34025;-86
2022/07/25 02:59:35;;;;;;;7.28;4.10;;;;;;;21.89;49.15;100029.22;4450264;32;34431;-85
2022/07/25 03:02:06;;;;;;;6.60;3.67;;;;;;;21.88;49.20;100020.28;4432491;32;32374;-85
2022/07/25 03:04:34;;;;;;;3.72;3.33;;;;;;;21.82;49.36;100025.34;4419981;32;31912;-85
2022/07/25 03:07:02;;;;;;;4.28;3.87;;;;;;;21.81;49.30;100029.03;4422177;32;34633;-85
2022/07/25 03:09:30;;;;;;;7.05;4.00;;;;;;;21.68;49.72;100032.75;4423592;32;33940;-85
2022/07/25 03:11:58;;;;;;;4.00;3.60;;;;;;;21.72;49.67;100036.03;4450142;32;33563;-85
2022/07/25 03:14:26;;;;;;;4.45;3.70;;;;;;;21.74;49.59;100031.38;4453374;32;32717;-87
2022/07/25 03:16:55;;;;;;;3.85;3.53;;;;;;;21.66;49.73;100032.06;4446580;32;33592;-87
2022/07/25 03:19:23;;;;;;;5.85;4.00;;;;;;;21.64;49.86;100034.00;4459082;32;33553;-87
2022/07/25 03:21:51;;;;;;;10.20;4.93;;;;;;;21.54;49.99;100034.94;4449915;32;33512;-87
2022/07/25 03:24:19;;;;;;;5.78;4.30;;;;;;;21.42;50.25;100034.16;4440435;32;32529;-87
2022/07/25 03:26:48;;;;;;;6.57;3.92;;;;;;;21.44;50.67;100038.41;4442789;32;32155;-86
2022/07/25 03:29:15;;;;;;;8.40;4.30;;;;;;;21.54;50.55;100037.63;4447698;32;33443;-85
2022/07/25 03:31:44;;;;;;;7.75;4.45;;;;;;;21.57;51.16;100038.22;4459015;32;33808;-84
2022/07/25 03:34:13;;;;;;;8.23;5.03;;;;;;;21.46;51.42;100035.59;4459386;32;33305;-86
2022/07/25 03:36:41;;;;;;;4.18;3.30;;;;;;;21.55;51.16;100034.78;4447150;32;33390;-86
2022/07/25 03:39:09;;;;;;;7.93;4.85;;;;;;;21.44;51.45;100037.56;4471953;32;33870;-85
2022/07/25 03:41:37;;;;;;;7.32;4.10;;;;;;;21.47;51.33;100037.31;4460093;32;33466;-85
2022/07/25 03:44:06;;;;;;;5.90;3.97;;;;;;;21.49;51.31;100046.06;4474809;32;33430;-86
2022/07/25 03:46:34;;;;;;;5.35;4.55;;;;;;;21.45;51.48;100041.94;4447901;32;33961;-85
2022/07/25 03:49:02;;;;;;;6.78;4.00;;;;;;;21.40;51.94;100046.84;4461865;32;33578;-85
2022/07/25 03:51:32;;;;;;;6.47;4.28;;;;;;;21.54;51.74;100037.63;4472939;32;33223;-85
2022/07/25 03:54:00;;;;;;;5.90;4.68;;;;;;;21.57;51.80;100042.75;4472671;32;33036;-85
2022/07/25 03:56:35;;;;;;;5.87;4.62;;;;;;;21.72;51.44;100036.87;4446559;32;34710;-85
2022/07/25 03:59:13;;;;;;;4.40;4.00;;;;;;;21.77;51.75;100046.41;4461178;32;33436;-85
2022/07/25 04:01:42;;;;;;;4.33;3.93;;;;;;;22.00;50.46;100042.56;4460004;32;33051;-85
2022/07/25 04:04:12;;;;;;;5.87;4.15;;;;;;;22.05;50.04;100043.00;4473644;32;33775;-84
2022/07/25 04:06:40;;;;;;;8.60;4.65;;;;;;;22.14;49.72;100039.53;4447781;32;32738;-84
2022/07/25 04:09:09;;;;;;;9.95;4.32;;;;;;;22.06;50.87;100044.72;4460505;32;33304;-84
2022/07/25 04:11:38;;;;;;;9.35;4.28;;;;;;;22.22;50.68;100045.09;4462465;32;33656;-84
2022/07/25 04:14:06;;;;;;;4.85;4.35;;;;;;;22.36;51.11;100051.06;4447338;32;33453;-84
2022/07/25 04:16:34;;;;;;;8.30;4.10;;;;;;;22.39;50.94;100046.28;4459952;32;33539;-84
2022/07/25 04:19:04;;;;;;;6.12;4.62;;;;;;;22.52;50.62;100050.59;4471925;32;33322;-84
2022/07/25 04:21:33;;;;;;;8.45;4.32;;;;;;;22.60;50.40;100046.22;4459186;32;33774;-88
2022/07/25 04:24:01;;;;;;;6.07;4.35;;;;;;;22.73;50.00;100054.88;4473915;32;32928;-87
2022/07/25 04:26:29;;;;;;;6.00;3.80;;;;;;;22.80;49.57;100049.78;4460460;32;34563;-86
2022/07/25 04:29:01;;;;;;;5.68;4.18;;;;;;;22.94;48.60;100048.56;4446597;32;33328;-85
2022/07/25 04:31:30;;;;;;;4.72;4.22;;;;;;;23.10;48.90;100046.16;4472544;32;33619;-85
2022/07/25 04:33:59;;;;;;;4.97;3.78;;;;;;;23.23;48.71;100046.75;4459598;32;32061;-85
2022/07/25 04:36:28;;;;;;;7.22;3.90;;;;;;;23.22;48.85;100050.44;4461379;32;33520;-84
2022/07/25 04:38:57;;;;;;;6.80;4.37;;;;;;;23.50;48.46;100053.25;4447905;32;32749;-85
2022/07/25 04:41:25;;;;;;;4.78;4.18;;;;;;;23.61;47.72;100053.09;4460914;32;34522;-85
2022/07/25 04:43:52;;;;;;;8.32;3.90;;;;;;;23.61;47.72;100050.37;4474323;32;34202;-86
2022/07/25 04:46:22;;;;;;;10.05;5.18;;;;;;;23.81;47.54;100048.53;4458666;32;33699;-86
2022/07/25 04:48:51;;;;;;;6.35;4.22;;;;;;;23.84;47.74;100052.78;4461694;32;33287;-87
2022/07/25 04:51:22;;;;;;;4.80;3.97;;;;;;;23.80;47.76;100054.06;4458630;32;33178;-85
2022/07/25 04:53:50;;;;;;;4.93;4.18;;;;;;;23.94;47.19;100050.91;4473266;32;33341;-85
2022/07/25 04:56:19;;;;;;;8.07;4.82;;;;;;;24.24;46.72;100053.34;4460941;32;33975;-86
2022/07/25 04:58:48;;;;;;;6.93;3.58;;;;;;;24.41;46.19;100051.75;4448438;32;34710;-87
2022/07/25 05:01:16;;;;;;;7.78;4.40;;;;;;;24.51;46.29;100054.41;4448208;32;34503;-87
2022/07/25 05:03:44;;;;;;;5.28;4.28;;;;;;;24.65;45.33;100056.59;4474510;32;34191;-85
2022/07/25 05:06:18;;;;;;;5.57;3.78;;;;;;;24.68;44.71;100050.03;4458685;32;32850;-84
2022/07/25 05:08:46;;;;;;;6.22;3.65;;;;;;;24.62;45.23;100051.47;4458025;32;33971;-84
2022/07/25 05:11:13;;;;;;;16.55;4.05;;;;;;;24.65;44.78;100051.19;4472230;32;33944;-85
2022/07/25 05:13:47;;;;;;;6.35;3.78;;;;;;;24.69;45.10;100052.59;4460823;32;33479;-85
2022/07/25 05:16:16;;;;;;;6.25;3.83;;;;;;;24.72;44.87;100049.56;4471584;32;33368;-84
2022/07/25 05:18:45;;;;;;;5.40;4.32;;;;;;;24.96;44.11;100046.28;4459993;32;34664;-84
2022/07/25 05:21:13;;;;;;;7.85;3.65;;;;;;;25.04;45.19;100048.22;4459626;32;34077;-86
2022/07/25 05:23:42;;;;;;;9.02;3.78;;;;;;;25.21;44.93;100042.00;4462169;32;33656;-85
2022/07/25 05:26:17;;;;;;;3.83;2.85;;;;;;;25.33;45.03;100044.47;4472410;31;33641;-82
2022/07/25 05:31:28;;;;;;;10.77;3.00;;;;;;;25.48;43.30;100041.03;4472046;31;34136;-81
2022/07/25 05:33:57;;;;;;;3.97;3.58;;;;;;;25.84;40.73;100045.56;4449629;32;33050;-81
2022/07/25 05:36:25;;;;;;;4.20;3.20;;;;;;;25.86;42.90;100036.25;4434079;32;33757;-80
2022/07/25 05:38:55;;;;;;;3.17;2.85;;;;;;;26.02;41.99;100035.53;4469772;31;32986;-80
2022/07/25 05:41:24;;;;;;;4.28;2.53;;;;;;;26.17;38.02;100033.91;4463646;32;32759;-81
2022/07/25 05:43:55;;;;;;;3.97;3.22;;;;;;;26.05;40.00;100029.78;4464831;32;32958;-81
2022/07/25 05:46:23;;;;;;;3.35;2.83;;;;;;;26.27;38.57;100028.38;4460382;32;34857;-81
2022/07/25 05:48:53;;;;;;;5.03;2.65;;;;;;;26.26;37.38;100027.53;4474423;31;33743;-81
2022/07/25 05:51:22;;;;;;;3.40;3.10;;;;;;;26.54;37.40;100019.19;4466566;32;33653;-81
2022/07/25 05:53:56;;;;;;;7.12;3.00;;;;;;;26.86;36.56;100018.41;4461707;32;34040;-81
2022/07/25 05:56:28;;;;;;;3.78;3.10;;;;;;;27.04;36.01;100020.97;4476488;31;34013;-80
2022/07/25 05:58:58;;;;;;;4.53;2.67;;;;;;;26.75;36.46;100025.00;4457303;32;32883;-81
2022/07/25 06:01:26;;;;;;;4.28;2.80;;;;;;;26.94;36.90;100014.88;4450299;32;33122;-81
2022/07/25 06:03:55;;;;;;;5.25;2.90;;;;;;;27.09;36.62;100024.06;4452573;32;33180;-81
2022/07/25 06:06:25;;;;;;;4.25;3.35;;;;;;;27.05;35.88;100020.81;4446569;32;34705;-81
2022/07/25 06:08:55;;;;;;;6.37;3.08;;;;;;;27.05;36.25;100023.50;4449134;32;34687;-82
2022/07/25 06:11:26;;;;;;;3.22;2.62;;;;;;;26.99;35.59;100012.50;4462763;32;33378;-82
2022/07/25 06:13:59;;;;;;;3.12;2.53;;;;;;;27.29;35.17;100016.44;4462182;32;32400;-82
2022/07/25 06:16:27;;;;;;;7.45;2.70;;;;;;;27.00;34.26;100011.50;4456321;32;33345;-82
2022/07/25 06:18:57;;;;;;;4.90;2.70;;;;;;;26.77;35.58;100025.66;4475476;31;33475;-83
2022/07/25 06:21:25;;;;;;;6.62;3.03;;;;;;;26.93;35.19;100024.03;4444715;32;33310;-83
2022/07/25 06:23:54;;;;;;;5.45;2.17;;;;;;;27.49;33.82;100015.09;4445532;32;32299;-82
2022/07/25 06:26:24;;;;;;;5.93;2.40;;;;;;;27.22;34.29;100015.44;4463144;32;34282;-82
2022/07/25 06:28:53;;;;;;;3.08;2.47;;;;;;;27.34;33.69;100018.66;4460292;32;34081;-82
2022/07/25 06:31:23;;;;;;;3.90;2.55;;;;;;;27.70;33.77;100019.97;4460426;32;33934;-82
2022/07/25 06:33:51;;;;;;;5.20;2.97;;;;;;;27.88;33.10;100014.38;4451746;32;32075;-82
2022/07/25 06:36:20;;;;;;;3.35;2.35;;;;;;;28.18;32.67;100010.03;4438627;32;34383;-82
2022/07/25 06:39:02;;;;;;;4.63;2.50;;;;;;;28.07;33.93;100013.13;4472428;31;33126;-84
2022/07/25 06:41:30;;;;;;;5.93;2.37;;;;;;;27.96;32.82;100010.78;4456229;32;33176;-86
2022/07/25 06:44:00;;;;;;;3.33;2.80;;;;;;;28.10;33.59;100003.78;4476121;31;31407;-84
2022/07/25 06:46:31;;;;;;;3.42;2.15;;;;;;;28.28;31.69;99997.09;4460904;32;33533;-83
2022/07/25 06:48:59;;;;;;;5.32;2.50;;;;;;;27.84;32.84;100014.91;4477037;31;33631;-83
2022/07/25 06:51:29;;;;;;;3.70;2.87;;;;;;;27.83;32.86;99994.22;4448319;32;32770;-84
2022/07/25 06:53:57;;;;;;;2.90;2.50;;;;;;;28.44;32.68;100000.78;4473815;31;32990;-85
2022/07/25 06:56:30;;;;;;;6.37;3.08;;;;;;;28.29;32.23;99992.50;4463448;32;33493;-85
2022/07/25 06:58:59;;;;;;;5.82;2.40;;;;;;;28.21;32.53;99996.13;4472718;31;33825;-84
2022/07/25 07:01:35;;;;;;;2.78;2.53;;;;;;;28.05;32.57;99999.72;4459020;32;34540;-85
2022/07/25 07:04:07;;;;;;;3.37;2.28;;;;;;;28.37;32.56;99997.94;4447730;32;33662;-85
2022/07/25 07:06:38;;;;;;;2.72;2.33;;;;;;;28.56;32.47;99983.91;4460165;32;33359;-85
2022/07/25 07:09:13;;;;;;;2.30;2.10;;;;;;;28.28;33.01;99983.50;4461274;32;35043;-85
2022/07/25 07:11:41;;;;;;;4.40;2.30;;;;;;;28.52;32.34;99979.84;4458522;32;33808;-85
2022/07/25 07:14:12;;;;;;;6.80;2.65;;;;;;;29.20;31.66;99982.78;4452648;32;33023;-85
2022/07/25 07:16:41;;;;;;;2.37;2.17;;;;;;;28.95;31.53;99977.56;4458665;32;32994;-86
2022/07/25 07:19:16;;;;;;;5.22;2.33;;;;;;;29.11;30.91;99979.31;4446455;32;35043;-85
2022/07/25 07:21:50;;;;;;;3.72;2.75;;;;;;;28.98;30.92;99979.09;4459796;32;33446;-86
2022/07/25 07:24:24;;;;;;;3.20;2.53;;;;;;;29.06;31.00;99982.59;4460121;32;32267;-85
2022/07/25 07:26:53;;;;;;;7.43;2.20;;;;;;;28.88;31.22;99992.03;4460513;32;34709;-86
2022/07/25 07:29:21;;;;;;;7.47;2.67;;;;;;;29.40;30.88;99981.28;4462795;32;33588;-86
2022/07/25 07:31:51;;;;;;;5.95;2.78;;;;;;;29.85;29.93;99977.59;4460495;32;33429;-85
2022/07/25 07:34:22;;;;;;;4.03;2.20;;;;;;;29.36;30.21;99984.56;4459728;32;33109;-86
2022/07/25 07:39:29;;;;;;;6.40;2.70;;;;;;;29.76;30.12;99983.31;4471040;32;34372;-85
2022/07/25 07:42:00;;;;;;;3.22;2.92;;;;;;;29.72;29.43;99980.16;4460783;32;33490;-85
2022/07/25 07:44:31;;;;;;;5.47;2.85;;;;;;;29.97;29.94;99982.59;4454054;32;31798;-86
2022/07/25 07:47:01;;;;;;;4.75;2.65;;;;;;;29.46;29.99;99979.69;4468117;31;34321;-85
2022/07/25 07:49:32;;;;;;;3.30;2.10;;;;;;;29.88;29.30;99970.09;4446234;32;33149;-86
2022/07/25 07:52:08;;;;;;;4.53;2.70;;;;;;;30.41;28.50;99971.66;4460298;32;34051;-85
2022/07/25 07:57:28;;;;;;;6.05;2.50;;;;;;;30.31;29.61;99969.22;4467306;32;33755;-85
2022/07/25 07:59:57;;;;;;;3.10;2.90;;;;;;;30.53;28.11;99963.84;4460093;32;32825;-85
2022/07/25 08:02:27;;;;;;;7.30;2.83;;;;;;;30.39;29.97;99968.28;4446033;32;32842;-85
2022/07/25 08:04:56;;;;;;;2.87;2.45;;;;;;;30.52;28.20;99968.41;4463696;32;32771;-85
2022/07/25 08:07:30;;;;;;;3.92;2.92;;;;;;;30.53;28.08;99969.28;4459802;32;34722;-85
2022/07/25 08:10:00;;;;;;;6.20;2.62;;;;;;;30.44;27.85;99965.00;4462402;32;34824;-85
2022/07/25 08:12:29;;;;;;;3.00;2.70;;;;;;;30.57;28.26;99956.94;4464665;32;33400;-85
2022/07/25 08:15:06;;;;;;;3.22;2.45;;;;;;;31.10;28.84;99957.53;4461355;32;33336;-86
2022/07/25 08:17:36;;;;;;;3.42;2.47;;;;;;;30.90;28.00;99959.22;4451972;32;33550;-86
2022/07/25 08:20:07;;;;;;;3.80;2.67;;;;;;;31.44;26.92;99956.78;4456506;32;32592;-86
2022/07/25 08:22:58;;;;;;;5.93;2.33;;;;;;;31.17;27.54;99954.84;4463699;32;33163;-86
2022/07/25 08:25:26;;;;;;;5.78;3.05;;;;;;;30.92;27.56;99951.69;4463652;32;33371;-85
2022/07/25 08:27:56;;;;;;;7.97;3.22;;;;;;;30.72;28.22;99957.78;4464012;32;33685;-85
2022/07/25 08:30:26;;;;;;;9.23;3.03;;;;;;;30.81;27.82;99950.31;4462503;32;32885;-85
2022/07/25 08:32:58;;;;;;;5.82;3.17;;;;;;;31.17;26.71;99944.78;4475795;31;33633;-86
2022/07/25 08:35:34;;;;;;;5.07;3.05;;;;;;;31.59;27.88;99953.94;4450888;32;30739;-85
2022/07/25 08:38:03;;;;;;;4.62;2.72;;;;;;;30.86;27.83;99942.41;4475444;31;33688;-86
2022/07/25 08:40:33;;;;;;;3.33;3.08;;;;;;;31.36;27.55;99944.12;4466794;32;32644;-86
2022/07/25 08:43:03;;;;;;;3.62;3.00;;;;;;;31.27;27.98;99944.47;4435838;32;31870;-86
2022/07/25 08:45:52;;;;;;;7.78;2.92;;;;;;;31.56;27.15;99948.88;4464949;32;33852;-84
2022/07/25 08:48:25;;;;;;;5.45;3.00;;;;;;;31.47;26.03;99940.00;4463565;32;32054;-84
2022/07/25 08:50:57;;;;;;;6.37;3.25;;;;;;;31.40;27.51;99932.81;4472854;31;33606;-84
2022/07/25 08:53:35;;;;;;;5.62;2.62;;;;;;;31.75;27.96;99929.03;4461566;32;35172;-85
2022/07/25 08:56:05;;;;;;;4.55;3.05;;;;;;;31.65;26.45;99936.75;4455683;32;33008;-85
2022/07/25 08:58:56;;;;;;;3.58;2.85;;;;;;;31.99;26.45;99925.00;4475641;31;34358;-85
2022/07/25 09:01:28;;;;;;;6.85;3.15;;;;;;;31.86;27.00;99939.44;4464048;31;33175;-86
2022/07/25 09:04:02;;;;;;;4.85;3.35;;;;;;;31.41;26.44;99935.34;4474085;31;31803;-86
2022/07/25 09:06:33;;;;;;;4.78;3.58;;;;;;;31.91;25.93;99929.81;4462883;32;33735;-85
2022/07/25 09:11:40;;;;;;;4.87;3.17;;;;;;;32.53;25.22;99920.62;4462611;31;33102;-85
2022/07/25 09:14:11;;;;;;;3.97;3.08;;;;;;;32.62;25.04;99922.09;4465842;32;33199;-85
2022/07/25 09:16:45;;;;;;;3.70;3.12;;;;;;;32.31;25.98;99912.53;4462812;32;32629;-85
2022/07/25 09:19:16;;;;;;;;;;;;;;;32.94;25.54;99906.78;4449332;32;34189;-85
2022/07/25 09:24:44;;;;;;;4.43;3.28;;;;;;;32.92;25.94;99899.88;4461743;32;35664;-85
2022/07/25 09:27:33;;;;;;;5.25;3.00;;;;;;;32.68;25.09;99904.88;4458703;32;32831;-86
2022/07/25 09:30:12;;;;;;;3.55;3.22;;;;;;;32.85;25.64;99894.34;4460383;32;34761;-86
2022/07/25 09:32:42;;;;;;;7.90;3.65;;;;;;;32.77;26.59;99902.78;4465187;32;33000;-85
2022/07/25 09:35:11;;;;;;;3.53;3.00;;;;;;;32.98;25.76;99893.56;4476139;31;32434;-86
2022/07/25 09:37:41;;;;;;;4.25;3.85;;;;;;;32.50;24.66;99902.72;4477379;31;33824;-85
2022/07/25 09:40:15;;;;;;;5.03;3.22;;;;;;;33.02;24.88;99892.06;4449416;32;33437;-85
2022/07/25 09:42:53;;;;;;;3.92;3.35;;;;;;;33.26;25.95;99894.16;4461566;32;34389;-86
2022/07/25 09:45:22;;;;;;;10.88;3.25;;;;;;;33.52;24.19;99886.97;4475688;31;33372;-85
2022/07/25 09:53:15;;;;;;;4.82;3.05;;;;;;;33.29;23.92;99876.50;4464399;32;34703;-86
2022/07/25 09:55:47;;;;;;;6.35;3.12;;;;;;;33.79;23.47;99872.16;4458612;32;34128;-85
2022/07/25 09:58:15;;;;;;;4.90;3.50;;;;;;;34.03;22.44;99869.78;4464905;32;32833;-86
2022/07/25 10:00:46;;;;;;;6.68;3.15;;;;;;;33.42;23.82;99868.22;4475169;31;34329;-86
2022/07/25 10:03:53;;;;;;;10.73;4.53;;;;;;;33.38;23.91;99865.09;4474023;31;34672;-85
2022/07/25 10:06:40;;;;;;;5.35;3.60;;;;;;;33.53;23.07;99869.53;4460241;32;33040;-85
2022/07/25 10:09:19;;;;;;;3.72;2.85;;;;;;;33.94;24.74;99851.88;4465356;32;33241;-85
2022/07/25 10:12:04;;;;;;;3.30;3.00;;;;;;;33.72;23.23;99854.94;4474600;31;33849;-84
2022/07/25 10:14:36;;;;;;;4.10;2.83;;;;;;;34.22;22.01;99844.16;4446543;32;34361;-85
2022/07/25 10:17:06;;;;;;;3.55;2.90;;;;;;;34.44;23.30;99843.81;4465045;32;34198;-85
2022/07/25 10:19:45;;;;;;;3.80;2.47;;;;;;;34.24;22.55;99839.31;4462211;32;34517;-85
2022/07/25 10:22:21;;;;;;;3.80;2.70;;;;;;;34.32;22.45;99846.41;4444393;32;32333;-85
2022/07/25 10:25:15;;;;;;;2.92;2.72;;;;;;;34.23;22.27;99851.34;4467433;32;34682;-83
2022/07/25 10:27:51;;;;;;;6.05;3.22;;;;;;;34.51;24.25;99841.91;4459462;32;33585;-83
2022/07/25 10:30:38;;;;;;;4.60;2.70;;;;;;;34.06;22.26;99839.22;4462980;32;32801;-87
2022/07/25 10:33:17;;;;;;;2.92;2.65;;;;;;;34.06;22.46;99837.31;4465736;32;32558;-87
2022/07/25 10:35:53;;;;;;;4.45;3.05;;;;;;;34.43;23.12;99828.44;4456436;32;34821;-86
2022/07/25 10:38:27;;;;;;;4.07;3.37;;;;;;;34.30;22.67;99821.97;4456200;32;32531;-87
2022/07/25 10:41:03;;;;;;;3.42;2.80;;;;;;;34.67;22.40;99824.91;4479327;31;31243;-87
2022/07/25 10:43:38;;;;;;;4.10;3.70;;;;;;;35.17;21.64;99822.16;4453169;32;33660;-86
2022/07/25 10:46:12;;;;;;;3.58;2.45;;;;;;;35.30;20.40;99812.94;4452939;32;33191;-87
2022/07/25 10:48:42;;;;;;;4.60;2.62;;;;;;;35.51;21.71;99811.66;4450707;32;34428;-86
2022/07/25 10:51:13;;;;;;;4.20;3.10;;;;;;;35.52;20.01;99805.13;4454331;32;31519;-86
2022/07/25 10:53:51;;;;;;;3.95;2.95;;;;;;;35.04;21.24;99801.19;4451494;32;33705;-87
2022/07/25 10:56:26;;;;;;;4.25;2.70;;;;;;;34.95;21.48;99793.44;4453585;32;32749;-85
2022/07/25 10:58:58;;;;;;;3.58;2.75;;;;;;;34.87;20.27;99789.91;4451212;32;33393;-85
2022/07/25 11:01:28;;;;;;;2.87;2.65;;;;;;;34.90;22.23;99796.88;4448341;32;32506;-88
2022/07/25 11:04:07;;;;;;;3.30;2.72;;;;;;;34.72;22.04;99794.06;4444830;32;32392;-86
2022/07/25 11:09:29;;;;;;;3.10;2.65;;;;;;;35.32;20.54;99784.22;4458087;32;34491;-86
2022/07/25 11:12:00;;;;;;;3.45;2.58;;;;;;;35.33;21.22;99788.63;4462858;32;32594;-86
2022/07/25 11:14:32;;;;;;;7.47;3.33;;;;;;;35.34;21.59;99776.56;4462461;32;34987;-86
2022/07/25 11:17:12;;;;;;;3.08;2.08;;;;;;;35.19;20.08;99780.75;4455538;32;34432;-86
2022/07/25 11:19:43;;;;;;;3.60;2.50;;;;;;;35.14;21.02;99767.72;4468944;32;33181;-87
2022/07/25 11:22:19;;;;;;;2.95;2.30;;;;;;;35.15;19.86;99762.00;4467666;32;33528;-86
2022/07/25 11:24:47;;;;;;;3.90;2.78;;;;;;;35.79;19.09;99754.25;4443421;32;30946;-86
2022/07/25 11:27:26;;;;;;;3.55;2.30;;;;;;;35.99;19.79;99754.03;4437120;32;34860;-86
2022/07/25 11:30:21;;;;;;;3.22;2.20;;;;;;;35.47;19.76;99750.91;4455544;32;33511;-87
2022/07/25 11:33:02;;;;;;;3.25;2.20;;;;;;;35.37;18.12;99751.41;4459293;32;32865;-87
2022/07/25 11:35:35;;;;;;;4.72;2.00;;;;;;;35.61;17.55;99748.81;4453680;32;32910;-86
2022/07/25 11:38:12;;;;;;;2.08;1.90;;;;;;;35.89;17.47;99738.06;4445965;32;33452;-87
2022/07/25 11:40:44;;;;;;;3.42;1.85;;;;;;;35.19;16.34;99740.44;4445726;32;31905;-86
2022/07/25 11:43:23;;;;;;;8.77;2.67;;;;;;;35.62;16.58;99734.00;4457757;32;32847;-86
2022/07/25 11:45:57;;;;;;;5.47;2.33;;;;;;;35.11;17.93;99738.00;4457502;32;34476;-86
2022/07/25 11:48:39;;;;;;;1.80;1.70;;;;;;;35.36;17.75;99727.75;4456379;32;33650;-86
2022/07/25 11:51:18;;;;;;;4.60;2.22;;;;;;;35.61;17.97;99724.09;4459240;32;33128;-87
2022/07/25 11:53:50;;;;;;;5.37;2.40;;;;;;;35.81;20.12;99724.66;4471201;31;32505;-86
2022/07/25 11:56:23;;;;;;;5.90;2.90;;;;;;;35.70;17.87;99716.34;4458169;32;32494;-86
2022/07/25 11:59:13;;;;;;;2.35;2.12;;;;;;;36.27;18.13;99706.59;4454694;32;34010;-86
2022/07/25 12:01:44;;;;;;;5.70;2.00;;;;;;;35.75;19.84;99714.59;4464355;32;32813;-88
2022/07/25 12:04:18;;;;;;;4.40;2.83;;;;;;;35.53;19.54;99713.44;4431924;32;32315;-85
2022/07/25 12:06:52;;;;;;;6.10;2.50;;;;;;;35.50;19.69;99714.72;4474960;31;33456;-85
2022/07/25 12:09:28;;;;;;;5.05;2.83;;;;;;;35.64;19.74;99704.41;4463007;32;34307;-84